sensor_id;sensor_type;location;lat;lon;timestamp;pressure;altitude;pressure_sealevel;temperature;humidity
22753;BME280;11543;43.144;24.684;2023-02-23T00:01:28;98743.00;;;10.79;56.02
22753;BME280;11543;43.144;24.684;2023-02-23T00:03:57;98737.94;;;10.76;55.82
22753;BME280;11543;43.144;24.684;2023-02-23T00:06:27;98739.31;;;10.80;56.17
22753;BME280;11543;43.144;24.684;2023-02-23T00:08:54;98734.25;;;10.77;55.83
22753;BME280;11543;43.144;24.684;2023-02-23T00:11:20;98747.19;;;10.82;56.23
22753;BME280;11543;43.144;24.684;2023-02-23T00:13:48;98737.31;;;10.82;56.42
22753;BME280;11543;43.144;24.684;2023-02-23T00:16:21;98741.63;;;10.75;56.78
22753;BME280;11543;43.144;24.684;2023-02-23T00:18:53;98744.25;;;10.67;57.21
22753;BME280;11543;43.144;24.684;2023-02-23T00:21:20;98734.25;;;10.51;57.17
22753;BME280;11543;43.144;24.684;2023-02-23T00:24:01;98742.78;;;10.47;57.44
22753;BME280;11543;43.144;24.684;2023-02-23T00:26:28;98739.72;;;10.42;57.71
22753;BME280;11543;43.144;24.684;2023-02-23T00:28:56;98747.16;;;10.48;57.57
22753;BME280;11543;43.144;24.684;2023-02-23T00:31:23;98739.09;;;10.48;57.28
22753;BME280;11543;43.144;24.684;2023-02-23T00:33:53;98736.06;;;10.43;57.22
22753;BME280;11543;43.144;24.684;2023-02-23T00:36:21;98744.47;;;10.48;57.31
22753;BME280;11543;43.144;24.684;2023-02-23T00:38:52;98732.06;;;10.47;57.29
22753;BME280;11543;43.144;24.684;2023-02-23T00:41:18;98732.75;;;10.49;56.91
22753;BME280;11543;43.144;24.684;2023-02-23T00:43:48;98738.09;;;10.49;57.26
22753;BME280;11543;43.144;24.684;2023-02-23T00:46:15;98732.06;;;10.47;56.96
22753;BME280;11543;43.144;24.684;2023-02-23T00:48:42;98723.31;;;10.45;56.83
22753;BME280;11543;43.144;24.684;2023-02-23T00:51:09;98729.00;;;10.42;56.73
22753;BME280;11543;43.144;24.684;2023-02-23T00:53:34;98728.28;;;10.40;57.00
22753;BME280;11543;43.144;24.684;2023-02-23T00:56:00;98737.72;;;10.44;57.00
22753;BME280;11543;43.144;24.684;2023-02-23T00:58:29;98739.41;;;10.45;57.09
22753;BME280;11543;43.144;24.684;2023-02-23T01:00:55;98734.38;;;10.42;57.07
22753;BME280;11543;43.144;24.684;2023-02-23T01:03:24;98732.69;;;10.41;56.86
22753;BME280;11543;43.144;24.684;2023-02-23T01:05:50;98725.91;;;10.37;56.91
22753;BME280;11543;43.144;24.684;2023-02-23T01:08:16;98719.19;;;10.33;56.74
22753;BME280;11543;43.144;24.684;2023-02-23T01:10:43;98714.13;;;10.30;56.81
22753;BME280;11543;43.144;24.684;2023-02-23T01:13:12;98727.91;;;10.35;57.02
22753;BME280;11543;43.144;24.684;2023-02-23T01:15:41;98723.88;;;10.31;56.95
22753;BME280;11543;43.144;24.684;2023-02-23T01:18:08;98728.22;;;10.32;57.03
22753;BME280;11543;43.144;24.684;2023-02-23T01:20:34;98739.94;;;10.31;57.21
22753;BME280;11543;43.144;24.684;2023-02-23T01:23:00;98727.47;;;10.21;57.38
22753;BME280;11543;43.144;24.684;2023-02-23T01:25:26;98740.66;;;9.97;58.11
22753;BME280;11543;43.144;24.684;2023-02-23T01:27:53;98728.00;;;9.89;58.45
22753;BME280;11543;43.144;24.684;2023-02-23T01:30:19;98731.91;;;9.95;58.42
22753;BME280;11543;43.144;24.684;2023-02-23T01:32:45;98732.28;;;10.00;58.29
22753;BME280;11543;43.144;24.684;2023-02-23T01:35:11;98730.78;;;9.98;58.16
22753;BME280;11543;43.144;24.684;2023-02-23T01:37:39;98722.19;;;9.94;58.08
22753;BME280;11543;43.144;24.684;2023-02-23T01:40:07;98729.69;;;9.90;58.25
22753;BME280;11543;43.144;24.684;2023-02-23T01:42:41;98736.59;;;9.75;58.90
22753;BME280;11543;43.144;24.684;2023-02-23T01:47:49;98725.22;;;9.46;59.29
22753;BME280;11543;43.144;24.684;2023-02-23T01:50:16;98730.88;;;9.43;59.62
22753;BME280;11543;43.144;24.684;2023-02-23T01:52:46;98729.41;;;9.48;59.40
22753;BME280;11543;43.144;24.684;2023-02-23T01:55:14;98722.69;;;9.44;59.32
22753;BME280;11543;43.144;24.684;2023-02-23T01:57:47;98734.38;;;9.43;59.68
22753;BME280;11543;43.144;24.684;2023-02-23T02:00:14;98722.19;;;9.31;59.91
22753;BME280;11543;43.144;24.684;2023-02-23T02:02:40;98724.28;;;9.10;60.32
22753;BME280;11543;43.144;24.684;2023-02-23T02:05:06;98725.00;;;9.12;60.55
22753;BME280;11543;43.144;24.684;2023-02-23T02:07:38;98729.06;;;9.16;60.66
22753;BME280;11543;43.144;24.684;2023-02-23T02:10:06;98723.94;;;9.22;60.38
22753;BME280;11543;43.144;24.684;2023-02-23T02:12:35;98725.47;;;9.25;59.91
22753;BME280;11543;43.144;24.684;2023-02-23T02:15:02;98725.56;;;9.33;59.77
22753;BME280;11543;43.144;24.684;2023-02-23T02:26:39;98724.50;;;9.26;59.55
22753;BME280;11543;43.144;24.684;2023-02-23T02:37:40;98728.63;;;9.38;59.44
22753;BME280;11543;43.144;24.684;2023-02-23T02:45:38;98722.13;;;8.96;60.17
22753;BME280;11543;43.144;24.684;2023-02-23T02:51:19;98738.47;;;8.92;60.50
22753;BME280;11543;43.144;24.684;2023-02-23T02:54:01;98738.31;;;8.94;60.61
22753;BME280;11543;43.144;24.684;2023-02-23T02:56:33;98724.69;;;8.87;60.86
22753;BME280;11543;43.144;24.684;2023-02-23T02:59:06;98724.13;;;8.84;60.61
22753;BME280;11543;43.144;24.684;2023-02-23T03:01:53;98730.88;;;8.88;60.74
22753;BME280;11543;43.144;24.684;2023-02-23T03:04:37;98726.06;;;8.91;60.62
22753;BME280;11543;43.144;24.684;2023-02-23T03:07:43;98732.31;;;8.82;60.38
22753;BME280;11543;43.144;24.684;2023-02-23T03:10:42;98728.44;;;8.48;61.47
22753;BME280;11543;43.144;24.684;2023-02-23T03:22:59;98751.81;;;7.78;64.20
22753;BME280;11543;43.144;24.684;2023-02-23T03:26:07;98755.34;;;7.88;64.39
22753;BME280;11543;43.144;24.684;2023-02-23T03:35:04;98749.69;;;7.53;65.19
22753;BME280;11543;43.144;24.684;2023-02-23T03:37:58;98763.75;;;7.74;65.10
22753;BME280;11543;43.144;24.684;2023-02-23T03:40:45;98758.88;;;7.89;64.72
22753;BME280;11543;43.144;24.684;2023-02-23T03:43:35;98758.03;;;7.98;64.30
22753;BME280;11543;43.144;24.684;2023-02-23T03:46:24;98759.16;;;8.05;63.68
22753;BME280;11543;43.144;24.684;2023-02-23T03:49:12;98762.53;;;8.07;63.40
22753;BME280;11543;43.144;24.684;2023-02-23T03:52:02;98759.44;;;8.02;63.33
22753;BME280;11543;43.144;24.684;2023-02-23T03:54:54;98765.19;;;7.97;63.34
22753;BME280;11543;43.144;24.684;2023-02-23T03:57:41;98757.03;;;7.99;63.26
22753;BME280;11543;43.144;24.684;2023-02-23T04:00:29;98768.00;;;8.06;63.26
22753;BME280;11543;43.144;24.684;2023-02-23T04:03:17;98769.84;;;8.05;63.10
22753;BME280;11543;43.144;24.684;2023-02-23T04:06:03;98766.59;;;7.92;63.40
22753;BME280;11543;43.144;24.684;2023-02-23T04:08:50;98774.28;;;7.66;64.26
22753;BME280;11543;43.144;24.684;2023-02-23T04:11:45;98775.97;;;7.77;64.19
22753;BME280;11543;43.144;24.684;2023-02-23T04:14:38;98778.69;;;7.86;63.81
22753;BME280;11543;43.144;24.684;2023-02-23T04:17:07;98779.97;;;7.92;63.79
22753;BME280;11543;43.144;24.684;2023-02-23T04:19:33;98775.88;;;7.97;63.34
22753;BME280;11543;43.144;24.684;2023-02-23T04:21:59;98775.47;;;8.02;63.35
22753;BME280;11543;43.144;24.684;2023-02-23T04:24:24;98776.88;;;8.06;62.92
22753;BME280;11543;43.144;24.684;2023-02-23T04:26:49;98770.41;;;8.09;62.54
22753;BME280;11543;43.144;24.684;2023-02-23T04:29:15;98781.78;;;8.11;62.69
22753;BME280;11543;43.144;24.684;2023-02-23T04:31:41;98781.94;;;8.09;62.80
22753;BME280;11543;43.144;24.684;2023-02-23T04:34:06;98784.31;;;8.12;62.63
22753;BME280;11543;43.144;24.684;2023-02-23T04:36:32;98781.94;;;8.09;62.71
22753;BME280;11543;43.144;24.684;2023-02-23T04:38:58;98783.91;;;8.07;62.91
22753;BME280;11543;43.144;24.684;2023-02-23T04:41:23;98787.97;;;8.11;62.57
22753;BME280;11543;43.144;24.684;2023-02-23T04:43:49;98778.69;;;8.06;62.67
22753;BME280;11543;43.144;24.684;2023-02-23T04:46:14;98791.22;;;8.05;62.62
22753;BME280;11543;43.144;24.684;2023-02-23T04:48:40;98778.56;;;7.88;62.83
22753;BME280;11543;43.144;24.684;2023-02-23T04:51:05;98794.56;;;7.88;62.90
22753;BME280;11543;43.144;24.684;2023-02-23T04:53:31;98786.38;;;7.70;63.38
22753;BME280;11543;43.144;24.684;2023-02-23T04:55:56;98793.22;;;7.53;63.68
22753;BME280;11543;43.144;24.684;2023-02-23T04:58:22;98797.84;;;7.42;64.60
22753;BME280;11543;43.144;24.684;2023-02-23T05:00:47;98803.19;;;7.51;64.63
22753;BME280;11543;43.144;24.684;2023-02-23T05:03:14;98798.28;;;7.47;64.73
22753;BME280;11543;43.144;24.684;2023-02-23T05:05:41;98803.19;;;7.51;65.04
22753;BME280;11543;43.144;24.684;2023-02-23T05:08:07;98801.25;;;7.63;64.55
22753;BME280;11543;43.144;24.684;2023-02-23T05:10:33;98804.78;;;7.63;64.41
22753;BME280;11543;43.144;24.684;2023-02-23T05:12:59;98810.53;;;7.68;64.01
22753;BME280;11543;43.144;24.684;2023-02-23T05:15:25;98803.94;;;7.73;64.06
22753;BME280;11543;43.144;24.684;2023-02-23T05:17:54;98819.16;;;7.82;64.01
22753;BME280;11543;43.144;24.684;2023-02-23T05:20:20;98823.25;;;7.86;63.42
22753;BME280;11543;43.144;24.684;2023-02-23T05:22:46;98823.38;;;7.84;63.38
22753;BME280;11543;43.144;24.684;2023-02-23T05:25:11;98826.63;;;7.88;63.58
22753;BME280;11543;43.144;24.684;2023-02-23T05:27:37;98820.31;;;7.89;63.26
22753;BME280;11543;43.144;24.684;2023-02-23T05:30:05;98824.94;;;7.87;63.37
22753;BME280;11543;43.144;24.684;2023-02-23T05:32:32;98830.00;;;7.90;63.48
22753;BME280;11543;43.144;24.684;2023-02-23T05:34:59;98832.94;;;7.87;63.70
22753;BME280;11543;43.144;24.684;2023-02-23T05:37:24;98832.25;;;7.85;63.57
22753;BME280;11543;43.144;24.684;2023-02-23T05:39:50;98827.63;;;7.87;63.48
22753;BME280;11543;43.144;24.684;2023-02-23T05:42:16;98835.91;;;7.93;63.60
22753;BME280;11543;43.144;24.684;2023-02-23T05:44:42;98851.38;;;7.90;63.50
22753;BME280;11543;43.144;24.684;2023-02-23T05:47:08;98848.84;;;7.88;63.64
22753;BME280;11543;43.144;24.684;2023-02-23T05:49:35;98844.06;;;7.92;63.39
22753;BME280;11543;43.144;24.684;2023-02-23T05:52:00;98839.97;;;7.88;63.37
22753;BME280;11543;43.144;24.684;2023-02-23T05:54:26;98850.25;;;7.92;63.44
22753;BME280;11543;43.144;24.684;2023-02-23T05:56:51;98863.19;;;7.87;63.35
22753;BME280;11543;43.144;24.684;2023-02-23T05:59:17;98868.28;;;7.60;63.73
22753;BME280;11543;43.144;24.684;2023-02-23T06:01:42;98871.97;;;7.28;64.28
22753;BME280;11543;43.144;24.684;2023-02-23T06:04:09;98866.84;;;7.16;65.86
22753;BME280;11543;43.144;24.684;2023-02-23T06:06:37;98862.13;;;7.29;66.68
22753;BME280;11543;43.144;24.684;2023-02-23T06:09:03;98873.41;;;7.42;66.01
22753;BME280;11543;43.144;24.684;2023-02-23T06:11:29;98876.22;;;7.41;66.10
22753;BME280;11543;43.144;24.684;2023-02-23T06:13:57;98873.59;;;7.20;66.54
22753;BME280;11543;43.144;24.684;2023-02-23T06:16:24;98881.75;;;7.18;67.39
22753;BME280;11543;43.144;24.684;2023-02-23T06:18:49;98892.00;;;7.23;67.50
22753;BME280;11543;43.144;24.684;2023-02-23T06:21:15;98885.91;;;7.11;67.51
22753;BME280;11543;43.144;24.684;2023-02-23T06:23:40;98899.91;;;7.03;67.90
22753;BME280;11543;43.144;24.684;2023-02-23T06:26:06;98898.97;;;6.93;68.08
22753;BME280;11543;43.144;24.684;2023-02-23T06:28:31;98886.38;;;6.95;68.83
22753;BME280;11543;43.144;24.684;2023-02-23T06:30:57;98903.75;;;7.11;69.40
22753;BME280;11543;43.144;24.684;2023-02-23T06:33:23;98907.22;;;7.32;68.91
22753;BME280;11543;43.144;24.684;2023-02-23T06:35:48;98908.56;;;7.47;68.65
22753;BME280;11543;43.144;24.684;2023-02-23T06:38:17;98917.34;;;7.68;68.16
22753;BME280;11543;43.144;24.684;2023-02-23T06:40:42;98921.09;;;7.87;68.21
22753;BME280;11543;43.144;24.684;2023-02-23T06:43:10;98918.03;;;8.01;67.75
22753;BME280;11543;43.144;24.684;2023-02-23T06:45:37;98921.72;;;8.10;67.59
22753;BME280;11543;43.144;24.684;2023-02-23T06:48:02;98922.44;;;8.21;67.29
22753;BME280;11543;43.144;24.684;2023-02-23T06:50:28;98923.47;;;8.40;66.78
22753;BME280;11543;43.144;24.684;2023-02-23T06:52:54;98910.81;;;8.51;66.62
22753;BME280;11543;43.144;24.684;2023-02-23T06:55:20;98918.44;;;8.75;66.35
22753;BME280;11543;43.144;24.684;2023-02-23T06:57:48;98914.75;;;8.96;66.55
22753;BME280;11543;43.144;24.684;2023-02-23T07:00:14;98909.09;;;9.08;66.10
22753;BME280;11543;43.144;24.684;2023-02-23T07:02:43;98914.28;;;9.19;65.60
22753;BME280;11543;43.144;24.684;2023-02-23T07:05:09;98914.97;;;9.31;65.30
22753;BME280;11543;43.144;24.684;2023-02-23T07:07:35;98911.91;;;9.53;64.94
22753;BME280;11543;43.144;24.684;2023-02-23T07:10:01;98910.09;;;9.64;64.55
22753;BME280;11543;43.144;24.684;2023-02-23T07:12:26;98904.38;;;9.76;64.24
22753;BME280;11543;43.144;24.684;2023-02-23T07:14:51;98910.69;;;9.85;64.16
22753;BME280;11543;43.144;24.684;2023-02-23T07:17:17;98917.22;;;10.00;63.74
22753;BME280;11543;43.144;24.684;2023-02-23T07:19:43;98908.28;;;10.09;63.15
22753;BME280;11543;43.144;24.684;2023-02-23T07:22:08;98915.72;;;10.15;63.17
22753;BME280;11543;43.144;24.684;2023-02-23T07:24:34;98920.78;;;10.18;63.27
22753;BME280;11543;43.144;24.684;2023-02-23T07:26:59;98914.88;;;10.15;62.99
22753;BME280;11543;43.144;24.684;2023-02-23T07:29:25;98923.38;;;10.10;63.38
22753;BME280;11543;43.144;24.684;2023-02-23T07:31:51;98925.06;;;10.11;63.51
22753;BME280;11543;43.144;24.684;2023-02-23T07:34:17;98910.97;;;10.09;63.61
22753;BME280;11543;43.144;24.684;2023-02-23T07:36:42;98928.13;;;10.16;63.76
22753;BME280;11543;43.144;24.684;2023-02-23T07:39:08;98922.09;;;10.14;64.26
22753;BME280;11543;43.144;24.684;2023-02-23T07:41:33;98922.19;;;10.23;64.00
22753;BME280;11543;43.144;24.684;2023-02-23T07:43:59;98926.91;;;10.38;64.05
22753;BME280;11543;43.144;24.684;2023-02-23T07:46:25;98917.91;;;10.57;63.74
22753;BME280;11543;43.144;24.684;2023-02-23T07:48:51;98924.41;;;10.72;63.56
22753;BME280;11543;43.144;24.684;2023-02-23T07:51:16;98920.09;;;10.79;63.17
22753;BME280;11543;43.144;24.684;2023-02-23T07:53:43;98928.84;;;10.81;63.08
22753;BME280;11543;43.144;24.684;2023-02-23T07:56:09;98933.59;;;10.88;63.08
22753;BME280;11543;43.144;24.684;2023-02-23T07:58:37;98926.69;;;10.85;63.05
22753;BME280;11543;43.144;24.684;2023-02-23T08:01:03;98925.59;;;10.96;62.94
22753;BME280;11543;43.144;24.684;2023-02-23T08:03:28;98923.31;;;11.01;62.68
22753;BME280;11543;43.144;24.684;2023-02-23T08:05:54;98927.66;;;11.02;62.69
22753;BME280;11543;43.144;24.684;2023-02-23T08:08:20;98925.66;;;11.04;62.90
22753;BME280;11543;43.144;24.684;2023-02-23T08:10:46;98925.72;;;11.12;62.85
22753;BME280;11543;43.144;24.684;2023-02-23T08:13:13;98927.41;;;11.13;62.98
22753;BME280;11543;43.144;24.684;2023-02-23T08:15:39;98923.09;;;11.20;62.87
22753;BME280;11543;43.144;24.684;2023-02-23T08:18:05;98926.94;;;11.35;62.94
22753;BME280;11543;43.144;24.684;2023-02-23T08:20:31;98936.09;;;11.51;62.62
22753;BME280;11543;43.144;24.684;2023-02-23T08:22:57;98928.41;;;11.56;62.29
22753;BME280;11543;43.144;24.684;2023-02-23T08:25:23;98926.72;;;11.55;62.35
22753;BME280;11543;43.144;24.684;2023-02-23T08:27:49;98938.47;;;11.54;63.11
22753;BME280;11543;43.144;24.684;2023-02-23T08:30:22;98929.75;;;11.60;62.55
22753;BME280;11543;43.144;24.684;2023-02-23T08:32:49;98927.13;;;11.68;62.65
22753;BME280;11543;43.144;24.684;2023-02-23T08:35:15;98927.16;;;11.76;61.93
22753;BME280;11543;43.144;24.684;2023-02-23T08:37:40;98914.72;;;11.75;62.05
22753;BME280;11543;43.144;24.684;2023-02-23T08:40:07;98926.88;;;11.79;62.24
22753;BME280;11543;43.144;24.684;2023-02-23T08:42:33;98928.75;;;11.87;62.11
22753;BME280;11543;43.144;24.684;2023-02-23T08:44:58;98929.94;;;11.92;61.96
22753;BME280;11543;43.144;24.684;2023-02-23T08:47:26;98928.66;;;12.04;61.74
22753;BME280;11543;43.144;24.684;2023-02-23T08:49:52;98915.41;;;12.11;61.35
22753;BME280;11543;43.144;24.684;2023-02-23T08:52:20;98923.69;;;12.18;61.57
22753;BME280;11543;43.144;24.684;2023-02-23T08:54:45;98925.41;;;12.27;61.04
22753;BME280;11543;43.144;24.684;2023-02-23T08:57:11;98925.09;;;12.38;60.90
22753;BME280;11543;43.144;24.684;2023-02-23T08:59:38;98930.50;;;12.54;60.68
22753;BME280;11543;43.144;24.684;2023-02-23T09:02:05;98929.16;;;12.58;60.28
22753;BME280;11543;43.144;24.684;2023-02-23T09:04:33;98926.66;;;12.65;60.71
22753;BME280;11543;43.144;24.684;2023-02-23T09:07:02;98931.53;;;12.77;60.47
22753;BME280;11543;43.144;24.684;2023-02-23T09:09:28;98919.97;;;13.01;60.56
22753;BME280;11543;43.144;24.684;2023-02-23T09:11:54;98925.50;;;13.16;59.62
22753;BME280;11543;43.144;24.684;2023-02-23T09:14:19;98925.38;;;13.18;59.36
22753;BME280;11543;43.144;24.684;2023-02-23T09:16:45;98925.22;;;13.19;59.42
22753;BME280;11543;43.144;24.684;2023-02-23T09:19:11;98931.25;;;13.29;58.88
22753;BME280;11543;43.144;24.684;2023-02-23T09:21:37;98926.88;;;13.36;58.56
22753;BME280;11543;43.144;24.684;2023-02-23T09:24:02;98926.88;;;13.36;58.52
22753;BME280;11543;43.144;24.684;2023-02-23T09:26:28;98924.81;;;13.47;58.82
22753;BME280;11543;43.144;24.684;2023-02-23T09:28:54;98928.53;;;13.54;58.64
22753;BME280;11543;43.144;24.684;2023-02-23T09:31:22;98924.97;;;13.61;58.22
22753;BME280;11543;43.144;24.684;2023-02-23T09:33:49;98921.75;;;13.66;58.43
22753;BME280;11543;43.144;24.684;2023-02-23T09:36:19;98928.47;;;13.70;58.73
22753;BME280;11543;43.144;24.684;2023-02-23T09:38:48;98920.00;;;13.81;58.44
22753;BME280;11543;43.144;24.684;2023-02-23T09:49:28;98917.53;;;14.19;57.13
22753;BME280;11543;43.144;24.684;2023-02-23T09:52:00;98917.78;;;14.32;56.57
22753;BME280;11543;43.144;24.684;2023-02-23T09:54:31;98916.72;;;14.41;55.64
22753;BME280;11543;43.144;24.684;2023-02-23T09:57:00;98915.69;;;14.50;55.19
22753;BME280;11543;43.144;24.684;2023-02-23T09:59:28;98920.38;;;14.56;54.83
22753;BME280;11543;43.144;24.684;2023-02-23T10:01:58;98921.63;;;14.69;54.51
22753;BME280;11543;43.144;24.684;2023-02-23T10:04:40;98916.22;;;14.77;53.88
22753;BME280;11543;43.144;24.684;2023-02-23T10:07:30;98916.16;;;14.85;54.06
22753;BME280;11543;43.144;24.684;2023-02-23T10:21:01;98903.88;;;15.35;52.60
22753;BME280;11543;43.144;24.684;2023-02-23T10:23:42;98908.19;;;15.44;52.89
22753;BME280;11543;43.144;24.684;2023-02-23T10:26:17;98896.25;;;15.53;52.00
22753;BME280;11543;43.144;24.684;2023-02-23T10:28:44;98895.53;;;15.59;52.04
22753;BME280;11543;43.144;24.684;2023-02-23T10:31:32;98899.59;;;15.78;51.74
22753;BME280;11543;43.144;24.684;2023-02-23T10:34:03;98888.84;;;15.84;51.41
22753;BME280;11543;43.144;24.684;2023-02-23T10:36:40;98889.41;;;15.95;50.48
22753;BME280;11543;43.144;24.684;2023-02-23T10:39:10;98889.56;;;16.08;51.04
22753;BME280;11543;43.144;24.684;2023-02-23T10:41:37;98885.94;;;16.15;50.42
22753;BME280;11543;43.144;24.684;2023-02-23T10:44:05;98896.38;;;16.18;50.43
22753;BME280;11543;43.144;24.684;2023-02-23T10:46:39;98879.75;;;16.21;50.08
22753;BME280;11543;43.144;24.684;2023-02-23T10:49:16;98885.13;;;16.36;49.22
22753;BME280;11543;43.144;24.684;2023-02-23T10:51:44;98880.56;;;16.37;49.41
22753;BME280;11543;43.144;24.684;2023-02-23T10:54:33;98878.84;;;16.50;49.17
22753;BME280;11543;43.144;24.684;2023-02-23T10:57:00;98892.28;;;16.59;49.30
22753;BME280;11543;43.144;24.684;2023-02-23T10:59:26;98885.25;;;16.64;49.11
22753;BME280;11543;43.144;24.684;2023-02-23T11:01:52;98893.72;;;16.76;49.03
22753;BME280;11543;43.144;24.684;2023-02-23T11:04:24;98878.75;;;16.80;48.32
22753;BME280;11543;43.144;24.684;2023-02-23T11:07:05;98885.66;;;16.82;48.68
22753;BME280;11543;43.144;24.684;2023-02-23T11:09:32;98882.19;;;16.88;48.62
22753;BME280;11543;43.144;24.684;2023-02-23T11:12:00;98884.69;;;16.90;48.74
22753;BME280;11543;43.144;24.684;2023-02-23T11:14:28;98888.06;;;16.92;48.20
22753;BME280;11543;43.144;24.684;2023-02-23T11:16:58;98882.25;;;16.95;48.73
22753;BME280;11543;43.144;24.684;2023-02-23T11:19:36;98881.84;;;16.98;48.56
22753;BME280;11543;43.144;24.684;2023-02-23T11:22:03;98871.00;;;16.98;48.53
22753;BME280;11543;43.144;24.684;2023-02-23T11:24:39;98874.63;;;17.05;48.53
22753;BME280;11543;43.144;24.684;2023-02-23T11:27:15;98882.84;;;17.18;48.28
22753;BME280;11543;43.144;24.684;2023-02-23T11:29:44;98877.03;;;17.22;48.12
22753;BME280;11543;43.144;24.684;2023-02-23T11:34:38;98884.97;;;17.23;48.15
22753;BME280;11543;43.144;24.684;2023-02-23T11:37:19;98883.09;;;17.24;48.25
22753;BME280;11543;43.144;24.684;2023-02-23T11:42:21;98878.56;;;17.31;47.39
22753;BME280;11543;43.144;24.684;2023-02-23T11:45:15;98886.31;;;17.34;47.59
22753;BME280;11543;43.144;24.684;2023-02-23T11:47:45;98873.28;;;17.23;47.17
22753;BME280;11543;43.144;24.684;2023-02-23T11:50:21;98879.56;;;17.23;47.14
22753;BME280;11543;43.144;24.684;2023-02-23T11:53:04;98883.00;;;17.10;47.58
22753;BME280;11543;43.144;24.684;2023-02-23T11:55:32;98880.81;;;16.99;48.13
22753;BME280;11543;43.144;24.684;2023-02-23T11:58:26;98887.13;;;17.06;47.26
22753;BME280;11543;43.144;24.684;2023-02-23T12:00:59;98885.44;;;17.05;47.70
22753;BME280;11543;43.144;24.684;2023-02-23T12:03:28;98890.75;;;16.92;47.64
22753;BME280;11543;43.144;24.684;2023-02-23T12:05:55;98891.22;;;16.96;48.41
22753;BME280;11543;43.144;24.684;2023-02-23T12:08:44;98888.16;;;17.05;47.79
22753;BME280;11543;43.144;24.684;2023-02-23T12:11:17;98884.41;;;17.06;47.69
22753;BME280;11543;43.144;24.684;2023-02-23T12:15:03;98895.56;;;17.18;47.45
22753;BME280;11543;43.144;24.684;2023-02-23T12:17:24;98883.63;;;17.12;47.15
22753;BME280;11543;43.144;24.684;2023-02-23T12:20:00;98880.28;;;17.10;47.71
22753;BME280;11543;43.144;24.684;2023-02-23T12:22:37;98879.88;;;17.13;47.22
22753;BME280;11543;43.144;24.684;2023-02-23T12:25:12;98887.03;;;17.21;46.67
22753;BME280;11543;43.144;24.684;2023-02-23T12:27:47;98892.91;;;17.25;47.06
22753;BME280;11543;43.144;24.684;2023-02-23T12:30:32;98891.28;;;17.30;46.75
22753;BME280;11543;43.144;24.684;2023-02-23T12:33:11;98887.09;;;17.28;46.88
22753;BME280;11543;43.144;24.684;2023-02-23T12:35:59;98895.75;;;17.38;47.07
22753;BME280;11543;43.144;24.684;2023-02-23T12:41:13;98900.53;;;17.36;46.74
22753;BME280;11543;43.144;24.684;2023-02-23T12:43:52;98903.88;;;17.38;46.79
22753;BME280;11543;43.144;24.684;2023-02-23T12:46:27;98900.13;;;17.39;46.75
22753;BME280;11543;43.144;24.684;2023-02-23T12:51:40;98911.38;;;17.36;46.83
22753;BME280;11543;43.144;24.684;2023-02-23T12:54:11;98907.63;;;17.37;46.77
22753;BME280;11543;43.144;24.684;2023-02-23T12:56:48;98912.66;;;17.40;46.63
22753;BME280;11543;43.144;24.684;2023-02-23T13:02:43;98908.56;;;17.50;46.95
22753;BME280;11543;43.144;24.684;2023-02-23T13:05:19;98904.91;;;17.65;46.12
22753;BME280;11543;43.144;24.684;2023-02-23T13:10:54;98907.06;;;17.69;45.98
22753;BME280;11543;43.144;24.684;2023-02-23T13:13:36;98912.09;;;17.72;46.03
22753;BME280;11543;43.144;24.684;2023-02-23T13:18:45;98902.91;;;17.73;45.64
22753;BME280;11543;43.144;24.684;2023-02-23T13:21:25;98908.56;;;17.78;45.81
22753;BME280;11543;43.144;24.684;2023-02-23T13:31:33;98898.41;;;17.59;45.96
22753;BME280;11543;43.144;24.684;2023-02-23T13:34:00;98902.41;;;17.63;45.83
22753;BME280;11543;43.144;24.684;2023-02-23T13:36:28;98905.25;;;17.55;45.79
22753;BME280;11543;43.144;24.684;2023-02-23T13:41:36;98906.31;;;17.54;45.47
22753;BME280;11543;43.144;24.684;2023-02-23T13:44:25;98902.31;;;17.50;45.74
22753;BME280;11543;43.144;24.684;2023-02-23T13:50:45;98903.50;;;17.41;45.65
22753;BME280;11543;43.144;24.684;2023-02-23T13:52:50;98905.03;;;17.29;45.83
22753;BME280;11543;43.144;24.684;2023-02-23T13:57:55;98908.53;;;17.23;46.29
22753;BME280;11543;43.144;24.684;2023-02-23T14:00:27;98903.34;;;17.28;45.82
22753;BME280;11543;43.144;24.684;2023-02-23T14:02:53;98901.25;;;17.23;46.03
22753;BME280;11543;43.144;24.684;2023-02-23T14:05:24;98913.31;;;17.20;46.14
22753;BME280;11543;43.144;24.684;2023-02-23T14:07:53;98905.72;;;17.09;46.31
22753;BME280;11543;43.144;24.684;2023-02-23T14:10:35;98901.19;;;17.16;46.33
22753;BME280;11543;43.144;24.684;2023-02-23T14:15:47;98906.41;;;17.18;45.97
22753;BME280;11543;43.144;24.684;2023-02-23T14:23:32;98899.84;;;17.06;45.91
22753;BME280;11543;43.144;24.684;2023-02-23T14:34:59;98908.81;;;16.85;46.46
22753;BME280;11543;43.144;24.684;2023-02-23T14:37:30;98908.81;;;16.85;46.57
22753;BME280;11543;43.144;24.684;2023-02-23T14:40:09;98907.94;;;16.78;46.73
22753;BME280;11543;43.144;24.684;2023-02-23T14:42:37;98900.56;;;16.72;46.66
22753;BME280;11543;43.144;24.684;2023-02-23T14:45:25;98901.22;;;16.74;46.40
22753;BME280;11543;43.144;24.684;2023-02-23T14:48:12;98900.31;;;16.67;46.81
22753;BME280;11543;43.144;24.684;2023-02-23T14:50:40;98896.28;;;16.63;46.67
22753;BME280;11543;43.144;24.684;2023-02-23T14:53:12;98906.06;;;16.64;46.60
22753;BME280;11543;43.144;24.684;2023-02-23T14:55:42;98905.16;;;16.56;46.86
22753;BME280;11543;43.144;24.684;2023-02-23T15:00:48;98907.63;;;16.51;46.80
22753;BME280;11543;43.144;24.684;2023-02-23T15:03:16;98904.59;;;16.46;47.17
22753;BME280;11543;43.144;24.684;2023-02-23T15:05:46;98907.06;;;16.41;47.39
22753;BME280;11543;43.144;24.684;2023-02-23T15:08:18;98905.50;;;16.32;47.35
22753;BME280;11543;43.144;24.684;2023-02-23T15:10:46;98916.06;;;16.27;47.79